Time;durP1;ratioP1;P1;durP2;ratioP2;P2;SDS_P1;SDS_P2;PMS_P1;PMS_P2;Temp;Humidity;BMP_temperature;BMP_pressure;BME280_temperature;BME280_humidity;BME280_pressure;Samples;Min_cycle;Max_cycle;Signal;HPM_P1;HPM_P2
2022/08/15 00:04:53;;;;;;;7.22;6.53;;;25.80;56.30;;;;;;10512595;28;20028;-48
2022/08/15 00:09:53;;;;;;;8.25;7.45;;;25.80;56.30;;;;;;10530248;28;20028;-50
2022/08/15 00:14:55;;;;;;;8.85;7.95;;;25.80;56.30;;;;;;10530288;28;20035;-50
2022/08/15 00:19:56;;;;;;;7.35;6.70;;;25.80;56.30;;;;;;10530459;28;20034;-51
2022/08/15 00:24:57;;;;;;;7.82;7.13;;;25.80;56.30;;;;;;10530293;28;20435;-51
2022/08/15 00:30:02;;;;;;;8.27;7.35;;;25.80;56.30;;;;;;10481464;28;20049;-52
2022/08/15 00:35:35;;;;;;;7.22;6.53;;;25.80;56.30;;;;;;10516678;28;20028;-49
2022/08/15 00:40:28;;;;;;;7.70;7.00;;;25.80;56.30;;;;;;10529011;28;20040;-51
2022/08/15 00:45:28;;;;;;;7.25;6.55;;;25.80;56.30;;;;;;10511751;28;20028;-52
2022/08/15 00:50:29;;;;;;;8.05;7.38;;;25.80;56.30;;;;;;10529918;28;20159;-53
2022/08/15 00:55:31;;;;;;;7.35;6.60;;;25.70;56.30;;;;;;10511054;28;20552;-51
2022/08/15 01:00:39;;;;;;;8.50;7.68;;;25.70;56.30;;;;;;10519703;28;20035;-49
2022/08/15 01:05:42;;;;;;;8.65;7.63;;;25.70;56.30;;;;;;10538365;28;20032;-49
2022/08/15 01:10:44;;;;;;;7.65;6.95;;;25.70;56.30;;;;;;10519211;28;20107;-51
2022/08/15 01:15:45;;;;;;;7.20;6.60;;;25.70;56.30;;;;;;10518689;28;20066;-49
2022/08/15 01:20:46;;;;;;;8.50;7.70;;;25.70;56.30;;;;;;10536542;28;20081;-49
2022/08/15 01:25:57;;;;;;;8.00;7.25;;;25.70;56.30;;;;;;10518692;28;20514;-49
2022/08/15 01:31:02;;;;;;;8.07;7.38;;;25.70;56.30;;;;;;10478830;28;20045;-51
2022/08/15 01:36:04;;;;;;;7.85;7.18;;;25.70;56.30;;;;;;10513332;28;20115;-48
2022/08/15 01:41:37;;;;;;;8.57;7.78;;;25.70;56.30;;;;;;10501696;28;20096;-51
2022/08/15 01:47:07;;;;;;;7.32;6.63;;;25.70;56.30;;;;;;10535856;28;20032;-48
2022/08/15 01:52:08;;;;;;;6.95;6.35;;;25.70;56.30;;;;;;10519251;28;20040;-48
2022/08/15 01:57:11;;;;;;;7.70;7.00;;;25.70;56.30;;;;;;10517575;28;20121;-50
2022/08/15 02:02:12;;;;;;;8.73;8.00;;;25.70;56.30;;;;;;10535278;28;20024;-50
2022/08/15 02:07:18;;;;;;;7.63;6.93;;;25.70;56.40;;;;;;10534945;28;20024;-50
2022/08/15 02:12:27;;;;;;;7.53;6.88;;;25.70;56.40;;;;;;10516381;28;20526;-49
2022/08/15 02:17:28;;;;;;;8.35;7.65;;;25.70;56.40;;;;;;10517388;28;20085;-47
2022/08/15 02:22:29;;;;;;;8.70;7.97;;;25.70;56.40;;;;;;10516090;28;20072;-48
2022/08/15 02:27:33;;;;;;;9.90;8.90;;;25.70;56.40;;;;;;10505102;28;20033;-52
2022/08/15 02:32:39;;;;;;;8.07;7.28;;;25.70;56.50;;;;;;10499550;28;20459;-54
2022/08/15 02:37:40;;;;;;;7.93;7.25;;;25.60;56.40;;;;;;10533494;28;20028;-52
2022/08/15 02:42:44;;;;;;;8.88;8.05;;;25.60;56.40;;;;;;10533429;28;20402;-56
2022/08/15 02:47:44;;;;;;;7.80;7.00;;;25.60;56.40;;;;;;10515070;28;20115;-56
2022/08/15 02:52:49;;;;;;;8.45;7.75;;;25.60;56.40;;;;;;10533409;28;20107;-56
2022/08/15 02:57:50;;;;;;;8.45;7.75;;;25.70;56.50;;;;;;10532934;28;20510;-55
2022/08/15 03:03:02;;;;;;;8.65;7.88;;;25.60;56.50;;;;;;10533126;28;20036;-54
2022/08/15 03:08:04;;;;;;;8.02;7.32;;;25.60;56.50;;;;;;10533212;28;20063;-55
2022/08/15 03:13:11;;;;;;;8.40;7.60;;;25.60;56.50;;;;;;10532917;28;20036;-55
2022/08/15 03:18:13;;;;;;;8.68;7.78;;;25.60;56.50;;;;;;10532000;28;20154;-52
2022/08/15 03:23:14;;;;;;;7.85;7.15;;;25.60;56.50;;;;;;10531264;28;20076;-55
2022/08/15 03:28:25;;;;;;;8.18;7.38;;;25.60;56.50;;;;;;10514278;28;20472;-55
2022/08/15 03:33:29;;;;;;;9.50;8.70;;;25.60;56.50;;;;;;10504293;28;20031;-55
2022/08/15 03:38:30;;;;;;;7.53;6.82;;;25.60;56.50;;;;;;10497168;28;20594;-55
2022/08/15 03:43:30;;;;;;;8.30;7.60;;;25.60;56.50;;;;;;10531880;28;20115;-54
2022/08/15 03:48:45;;;;;;;7.80;6.97;;;25.60;56.60;;;;;;10531199;28;20212;-55
2022/08/15 03:53:58;;;;;;;9.10;8.30;;;25.60;56.50;;;;;;10514489;28;20032;-55
2022/08/15 03:59:00;;;;;;;8.07;7.35;;;25.60;56.60;;;;;;10514137;28;20077;-56
2022/08/15 04:04:01;;;;;;;8.20;7.50;;;25.60;56.60;;;;;;10530381;28;20055;-56
2022/08/15 04:09:02;;;;;;;9.27;8.43;;;25.50;56.50;;;;;;10530359;28;20035;-55
2022/08/15 04:14:07;;;;;;;8.20;7.40;;;25.60;56.60;;;;;;10529544;28;20040;-53
2022/08/15 04:19:08;;;;;;;8.57;7.78;;;25.60;56.60;;;;;;10509690;28;20403;-55
2022/08/15 04:24:09;;;;;;;8.02;7.30;;;25.50;56.60;;;;;;10529308;28;20040;-52
2022/08/15 04:29:10;;;;;;;7.60;6.82;;;25.50;56.60;;;;;;10507256;28;20032;-56
2022/08/15 04:34:10;;;;;;;9.32;8.43;;;25.50;56.60;;;;;;10510686;28;20028;-56
2022/08/15 04:39:11;;;;;;;8.68;7.97;;;25.50;56.60;;;;;;10531682;28;20085;-55
2022/08/15 04:44:12;;;;;;;7.60;6.90;;;25.60;56.70;;;;;;10531482;28;20139;-55
2022/08/15 04:49:12;;;;;;;8.52;7.82;;;25.50;56.70;;;;;;10530997;28;20085;-56
2022/08/15 04:54:13;;;;;;;8.23;7.53;;;25.50;56.70;;;;;;10531122;28;20128;-53
2022/08/15 04:59:14;;;;;;;8.75;7.85;;;25.50;56.70;;;;;;10531147;28;20445;-54
2022/08/15 05:04:15;;;;;;;7.68;6.93;;;25.50;56.70;;;;;;10531335;28;20162;-55
2022/08/15 05:09:16;;;;;;;8.13;7.40;;;25.50;56.70;;;;;;10531167;28;20032;-55
2022/08/15 05:14:18;;;;;;;8.30;7.50;;;25.50;56.70;;;;;;10512766;28;20430;-56
2022/08/15 05:19:18;;;;;;;8.45;7.75;;;25.50;56.80;;;;;;10512970;28;20415;-55
2022/08/15 05:24:19;;;;;;;8.30;7.60;;;25.50;56.80;;;;;;10530411;28;20119;-56
2022/08/15 05:29:20;;;;;;;7.90;7.10;;;25.50;56.80;;;;;;10504734;28;20020;-54
2022/08/15 05:34:21;;;;;;;8.40;7.57;;;25.50;56.80;;;;;;10510919;28;20029;-56
2022/08/15 05:39:29;;;;;;;8.45;7.65;;;25.50;56.90;;;;;;10512241;28;20466;-55
2022/08/15 05:44:59;;;;;;;9.37;8.37;;;25.50;56.90;;;;;;10516452;28;20039;-55
2022/08/15 05:50:30;;;;;;;7.82;7.05;;;25.50;56.90;;;;;;10538153;28;20035;-55
2022/08/15 05:55:53;;;;;;;8.57;7.78;;;25.50;56.90;;;;;;10520771;28;20041;-55
2022/08/15 06:01:09;;;;;;;8.20;7.45;;;25.50;56.90;;;;;;10503012;28;20103;-53
2022/08/15 06:06:15;;;;;;;7.65;6.97;;;25.50;57.00;;;;;;10519878;28;20051;-54
2022/08/15 06:11:26;;;;;;;8.70;7.90;;;25.50;56.90;;;;;;10519063;28;20031;-56
2022/08/15 06:16:37;;;;;;;8.00;7.25;;;25.50;56.90;;;;;;10536418;28;20062;-55
2022/08/15 06:21:57;;;;;;;8.13;7.32;;;25.50;57.00;;;;;;10518825;28;20024;-56
2022/08/15 06:27:40;;;;;;;7.35;6.65;;;25.50;56.90;;;;;;10513713;28;20085;-55
2022/08/15 06:33:06;;;;;;;7.65;6.95;;;25.50;56.90;;;;;;10494727;28;20400;-55
2022/08/15 06:38:24;;;;;;;7.50;6.80;;;25.50;56.90;;;;;;10518661;28;20064;-55
2022/08/15 06:43:24;;;;;;;7.82;6.47;;;25.50;56.90;;;;;;10517362;28;20046;-55
2022/08/15 06:48:32;;;;;;;7.53;6.90;;;25.50;56.90;;;;;;10534991;28;20495;-54
2022/08/15 06:53:55;;;;;;;6.68;6.07;;;25.50;56.90;;;;;;10516453;28;20032;-54
2022/08/15 06:59:15;;;;;;;7.05;6.45;;;25.50;56.80;;;;;;10517478;28;20056;-56
2022/08/15 07:04:30;;;;;;;7.38;6.68;;;25.50;56.80;;;;;;10534709;28;20032;-55
2022/08/15 07:09:54;;;;;;;7.65;6.97;;;25.50;56.70;;;;;;10517479;28;20028;-56
2022/08/15 07:15:17;;;;;;;7.30;6.60;;;25.50;56.60;;;;;;10518096;28;20035;-55
2022/08/15 07:20:18;;;;;;;7.43;6.72;;;25.50;56.60;;;;;;10518886;28;20024;-56
2022/08/15 07:25:28;;;;;;;7.57;6.88;;;25.50;56.70;;;;;;10533896;28;20483;-54
2022/08/15 07:31:36;;;;;;;7.18;6.47;;;25.60;56.60;;;;;;10497822;28;20038;-56
2022/08/15 07:36:37;;;;;;;7.47;6.68;;;25.60;56.60;;;;;;10477760;28;20040;-55
2022/08/15 07:41:41;;;;;;;7.53;6.72;;;25.60;56.60;;;;;;10533886;28;20044;-56
2022/08/15 07:47:06;;;;;;;7.30;6.70;;;25.60;56.60;;;;;;10533427;28;20031;-55
2022/08/15 07:52:16;;;;;;;6.50;5.90;;;25.50;56.60;;;;;;10517734;28;20039;-55
2022/08/15 07:57:36;;;;;;;7.13;6.50;;;25.60;56.60;;;;;;10532493;28;20035;-55
2022/08/15 08:02:51;;;;;;;6.30;5.70;;;25.50;56.60;;;;;;10532606;28;20036;-55
2022/08/15 08:07:54;;;;;;;6.57;5.97;;;25.50;57.00;;;;;;10531759;28;20032;-56
2022/08/15 08:13:42;;;;;;;6.85;6.20;;;25.50;56.70;;;;;;10514296;28;20122;-53
2022/08/15 08:19:02;;;;;;;5.78;5.28;;;25.60;56.70;;;;;;10531664;28;20020;-56
2022/08/15 08:24:23;;;;;;;6.38;5.78;;;25.50;56.70;;;;;;10531834;28;20545;-55
2022/08/15 08:29:45;;;;;;;5.93;5.43;;;25.60;56.70;;;;;;10488982;28;20414;-55
2022/08/15 08:35:07;;;;;;;5.78;5.28;;;25.60;56.70;;;;;;10498556;28;20028;-54
2022/08/15 08:46:43;;;;;;;5.65;5.10;;;25.60;56.70;;;;;;10515722;28;20044;-55
2022/08/15 08:52:24;;;;;;;5.97;5.15;;;25.50;56.60;;;;;;10496836;28;20036;-55
2022/08/15 08:57:36;;;;;;;6.35;5.28;;;25.60;56.60;;;;;;10515996;28;20024;-53
2022/08/15 09:03:27;;;;;;;5.82;5.22;;;25.60;56.60;;;;;;10514627;28;20036;-56
2022/08/15 09:08:51;;;;;;;6.40;5.80;;;25.60;56.70;;;;;;10512261;28;20445;-55
2022/08/15 09:13:56;;;;;;;5.72;5.20;;;25.60;56.80;;;;;;10531005;28;20028;-55
2022/08/15 09:19:23;;;;;;;6.15;5.60;;;25.60;56.80;;;;;;10516560;28;20395;-54
2022/08/15 09:24:24;;;;;;;6.22;5.65;;;25.60;56.90;;;;;;10538494;28;20043;-55
2022/08/15 09:29:37;;;;;;;6.50;5.88;;;25.60;56.90;;;;;;10493359;28;20438;-55
2022/08/15 09:35:03;;;;;;;5.82;5.32;;;25.60;56.90;;;;;;10503779;28;20111;-55
2022/08/15 09:40:49;;;;;;;6.13;5.07;;;25.70;57.00;;;;;;10537712;28;20047;-56
2022/08/15 09:46:03;;;;;;;5.60;5.00;;;25.60;56.90;;;;;;10537969;28;20024;-52
2022/08/15 09:51:22;;;;;;;6.43;5.47;;;25.60;56.90;;;;;;10519423;28;20073;-55
2022/08/15 09:56:27;;;;;;;5.50;4.97;;;25.60;56.90;;;;;;10537806;28;20051;-54
2022/08/15 10:01:40;;;;;;;5.57;5.03;;;25.60;57.00;;;;;;10519513;28;20617;-53
2022/08/15 10:07:10;;;;;;;5.72;5.18;;;25.60;57.00;;;;;;10520679;28;20032;-55
2022/08/15 10:12:14;;;;;;;5.60;5.10;;;25.60;57.00;;;;;;10504502;28;20040;-57
2022/08/15 10:17:34;;;;;;;6.88;5.70;;;25.60;57.10;;;;;;10536468;28;20032;-55
2022/08/15 10:22:59;;;;;;;5.43;4.75;;;25.60;57.10;;;;;;10536466;28;20035;-54
2022/08/15 10:28:12;;;;;;;5.93;5.32;;;25.60;57.20;;;;;;10503080;28;20424;-55
2022/08/15 10:33:33;;;;;;;4.97;4.50;;;25.60;57.20;;;;;;10506847;28;20028;-56
2022/08/15 10:38:34;;;;;;;5.63;5.13;;;25.60;57.30;;;;;;10517554;28;20040;-56
2022/08/15 10:44:05;;;;;;;5.05;4.55;;;25.60;57.30;;;;;;10517849;28;20114;-55
2022/08/15 10:50:03;;;;;;;5.28;4.78;;;25.60;57.30;;;;;;10505981;28;20073;-56
2022/08/15 10:55:42;;;;;;;6.10;5.50;;;25.60;57.40;;;;;;10519088;28;20040;-57
2022/08/15 11:01:17;;;;;;;5.63;5.13;;;25.60;57.50;;;;;;10446520;28;20037;-55
2022/08/15 11:06:22;;;;;;;5.70;5.20;;;25.60;57.60;;;;;;10507119;28;20286;-56
2022/08/15 11:11:30;;;;;;;5.93;5.32;;;25.60;57.50;;;;;;10534678;28;20374;-55
2022/08/15 11:16:46;;;;;;;7.88;5.70;;;25.60;57.60;;;;;;10516659;28;20042;-56
2022/08/15 11:21:55;;;;;;;6.22;5.63;;;25.60;57.60;;;;;;10534605;28;20025;-54
2022/08/15 11:27:16;;;;;;;7.32;6.25;;;25.60;57.70;;;;;;10528804;28;20108;-54
2022/08/15 11:32:35;;;;;;;5.90;5.35;;;25.60;57.70;;;;;;10496804;28;20032;-56
2022/08/15 11:37:42;;;;;;;5.40;4.90;;;25.60;57.80;;;;;;10498593;28;20046;-56
2022/08/15 11:42:43;;;;;;;5.60;5.10;;;25.60;57.70;;;;;;10515013;28;20352;-53
2022/08/15 11:47:52;;;;;;;6.07;5.47;;;25.60;57.80;;;;;;10533003;28;20032;-55
2022/08/15 11:52:57;;;;;;;5.82;5.32;;;25.60;57.90;;;;;;10515743;28;20028;-56
2022/08/15 11:58:13;;;;;;;5.97;5.38;;;25.60;57.90;;;;;;10515176;28;20505;-53
2022/08/15 12:03:27;;;;;;;5.82;5.32;;;25.60;57.90;;;;;;10532303;28;20379;-56
2022/08/15 12:08:32;;;;;;;6.15;5.65;;;25.60;57.90;;;;;;10531971;28;20028;-55
2022/08/15 12:13:33;;;;;;;5.38;4.88;;;25.60;58.00;;;;;;10532190;28;20031;-56
2022/08/15 12:18:34;;;;;;;6.22;5.63;;;25.60;58.00;;;;;;10513856;28;20025;-56
2022/08/15 12:23:48;;;;;;;6.07;5.00;;;25.60;58.00;;;;;;10513862;28;20056;-55
2022/08/15 12:28:49;;;;;;;6.57;5.32;;;25.60;58.00;;;;;;10510535;28;20483;-56
2022/08/15 12:34:19;;;;;;;5.47;4.97;;;25.60;58.00;;;;;;10489683;28;20024;-54
2022/08/15 12:39:20;;;;;;;6.63;5.57;;;25.60;58.00;;;;;;10531131;28;20055;-52
2022/08/15 12:44:25;;;;;;;6.40;5.30;;;25.60;58.20;;;;;;10531589;28;20043;-52
2022/08/15 12:49:26;;;;;;;6.10;5.28;;;25.60;58.20;;;;;;10531462;28;20382;-56
2022/08/15 12:54:27;;;;;;;6.30;5.43;;;25.70;58.50;;;;;;10535760;28;20024;-56
2022/08/15 12:59:27;;;;;;;6.43;5.82;;;25.70;58.40;;;;;;10540136;28;20612;-55
2022/08/15 13:04:29;;;;;;;5.55;5.05;;;25.70;58.40;;;;;;10539475;28;20043;-55
2022/08/15 13:09:32;;;;;;;6.13;5.50;;;25.80;58.40;;;;;;10539598;28;20043;-56
2022/08/15 13:14:33;;;;;;;5.55;4.95;;;25.80;58.30;;;;;;10539473;28;20052;-55
2022/08/15 13:25:07;;;;;;;8.50;5.32;;;25.80;58.30;;;;;;10539282;28;20040;-54
2022/08/15 13:30:12;;;;;;;5.72;5.22;;;25.80;58.40;;;;;;10505453;28;20078;-55
2022/08/15 13:35:16;;;;;;;6.53;5.72;;;25.70;58.30;;;;;;10525902;28;20036;-56
2022/08/15 13:40:22;;;;;;;5.80;5.20;;;25.70;58.30;;;;;;10520116;28;20036;-55
2022/08/15 13:45:23;;;;;;;5.40;4.90;;;25.80;58.40;;;;;;10520610;28;20478;-56
2022/08/15 13:50:24;;;;;;;5.20;4.70;;;25.80;58.30;;;;;;10538294;28;20028;-56
2022/08/15 13:55:25;;;;;;;4.68;4.28;;;25.80;58.30;;;;;;10537585;28;20036;-56
2022/08/15 14:00:26;;;;;;;6.20;5.60;;;25.80;58.20;;;;;;10538227;28;20403;-54
2022/08/15 14:05:28;;;;;;;5.43;4.70;;;25.80;58.20;;;;;;10536872;28;20028;-55
2022/08/15 14:10:29;;;;;;;6.22;5.35;;;25.80;58.20;;;;;;10536851;28;20028;-56
2022/08/15 14:15:30;;;;;;;7.20;4.45;;;25.80;58.20;;;;;;10536455;28;20032;-53
2022/08/15 14:20:31;;;;;;;5.30;4.80;;;25.80;58.20;;;;;;10536428;28;20051;-54
2022/08/15 14:25:37;;;;;;;5.18;4.50;;;25.80;58.20;;;;;;10518157;28;20047;-56
2022/08/15 14:30:39;;;;;;;7.05;5.43;;;25.80;58.20;;;;;;10499634;28;20483;-53
2022/08/15 14:35:40;;;;;;;6.32;5.80;;;25.80;58.10;;;;;;10526955;28;20123;-55
2022/08/15 14:40:42;;;;;;;5.88;5.30;;;25.80;58.20;;;;;;10535536;28;20047;-55
2022/08/15 14:45:43;;;;;;;5.57;4.93;;;25.80;58.20;;;;;;10517716;28;20032;-56
2022/08/15 14:50:44;;;;;;;5.20;4.60;;;25.80;58.90;;;;;;10536058;28;20028;-53
2022/08/15 14:55:45;;;;;;;5.53;5.00;;;25.80;58.30;;;;;;10535262;28;20032;-55
2022/08/15 15:00:46;;;;;;;5.35;4.85;;;25.80;58.30;;;;;;10534977;28;20020;-56
2022/08/15 15:05:46;;;;;;;6.07;5.47;;;25.80;58.30;;;;;;10516654;28;20036;-55
2022/08/15 15:10:48;;;;;;;5.57;5.07;;;25.80;58.30;;;;;;10534622;28;20032;-55
2022/08/15 15:15:51;;;;;;;5.00;4.57;;;25.80;58.30;;;;;;10533375;28;20452;-54
2022/08/15 15:20:57;;;;;;;5.18;4.40;;;25.70;58.30;;;;;;10533166;28;20024;-53
2022/08/15 15:25:58;;;;;;;5.15;4.60;;;25.70;58.30;;;;;;10533883;28;20509;-55
2022/08/15 15:31:00;;;;;;;5.28;4.78;;;25.70;58.40;;;;;;10493504;28;20037;-56
2022/08/15 15:36:25;;;;;;;5.30;4.80;;;25.70;58.40;;;;;;10527803;28;20093;-53
2022/08/15 15:41:26;;;;;;;4.68;4.28;;;25.70;58.40;;;;;;10517321;28;20040;-54
2022/08/15 15:46:27;;;;;;;6.43;5.38;;;25.70;58.30;;;;;;10533137;28;20025;-54
2022/08/15 15:51:30;;;;;;;5.05;4.55;;;25.70;58.30;;;;;;10515214;28;20481;-54
2022/08/15 15:56:31;;;;;;;7.38;5.90;;;25.70;58.30;;;;;;10514550;28;20036;-55
2022/08/15 16:01:34;;;;;;;5.72;5.22;;;25.80;58.30;;;;;;10532784;28;20490;-56
2022/08/15 16:06:35;;;;;;;5.15;4.70;;;25.70;58.20;;;;;;10514391;28;20042;-56
2022/08/15 16:11:45;;;;;;;5.38;4.88;;;25.70;58.20;;;;;;10532133;28;20114;-55
2022/08/15 16:17:29;;;;;;;5.13;4.55;;;25.80;58.30;;;;;;10514202;28;20032;-55
2022/08/15 16:22:38;;;;;;;5.32;4.82;;;25.80;58.30;;;;;;10513449;28;20052;-56
2022/08/15 16:28:13;;;;;;;5.63;4.82;;;25.80;58.30;;;;;;10502575;28;20484;-56
2022/08/15 16:33:37;;;;;;;5.50;5.00;;;25.80;58.20;;;;;;10485873;28;20514;-56
2022/08/15 16:38:54;;;;;;;5.13;4.60;;;25.80;58.20;;;;;;10514686;28;20504;-53
2022/08/15 16:43:58;;;;;;;6.03;4.88;;;25.80;58.30;;;;;;10514358;28;20028;-56
2022/08/15 16:49:18;;;;;;;5.78;4.45;;;25.80;58.20;;;;;;10530817;28;20032;-55
2022/08/15 16:54:32;;;;;;;6.88;5.28;;;25.80;58.20;;;;;;10515112;28;20040;-56
2022/08/15 16:59:50;;;;;;;5.30;4.80;;;25.80;58.20;;;;;;10531413;28;20024;-55
2022/08/15 17:05:10;;;;;;;5.28;4.78;;;25.70;58.10;;;;;;10513624;28;20032;-56
2022/08/15 17:10:59;;;;;;;5.15;4.60;;;25.80;58.20;;;;;;10513721;28;20093;-56
2022/08/15 17:16:52;;;;;;;5.00;4.50;;;25.80;58.20;;;;;;10515917;28;20070;-55
2022/08/15 17:22:03;;;;;;;6.07;4.80;;;25.80;58.20;;;;;;10531177;28;20079;-55
2022/08/15 17:27:28;;;;;;;5.22;4.47;;;25.70;58.20;;;;;;10523405;28;20468;-56
2022/08/15 17:32:29;;;;;;;5.18;4.68;;;25.80;58.20;;;;;;10478475;28;20028;-55
2022/08/15 17:37:31;;;;;;;5.88;5.25;;;25.80;58.30;;;;;;10530893;28;20475;-55
2022/08/15 17:42:36;;;;;;;6.00;5.47;;;25.80;58.30;;;;;;10537582;28;20399;-55
2022/08/15 17:47:46;;;;;;;6.15;4.88;;;25.80;58.30;;;;;;10520083;28;20039;-57
2022/08/15 17:52:54;;;;;;;4.65;4.25;;;25.80;58.30;;;;;;10520380;28;20322;-56
2022/08/15 17:58:26;;;;;;;5.93;5.30;;;25.80;58.30;;;;;;10503064;28;20386;-55
2022/08/15 18:03:26;;;;;;;5.13;4.63;;;25.80;58.20;;;;;;10519184;28;20071;-54
2022/08/15 18:08:34;;;;;;;4.85;4.28;;;25.80;58.20;;;;;;10537308;28;20222;-53
2022/08/15 18:13:34;;;;;;;5.50;5.00;;;25.80;58.30;;;;;;10518840;28;20032;-56
2022/08/15 18:18:44;;;;;;;4.63;4.22;;;25.80;58.20;;;;;;10536611;28;20115;-55
2022/08/15 18:23:45;;;;;;;5.03;4.43;;;25.80;58.20;;;;;;10519318;28;20036;-55
2022/08/15 18:28:47;;;;;;;4.50;4.00;;;25.80;58.30;;;;;;10497176;28;20032;-56
2022/08/15 18:33:49;;;;;;;5.47;4.97;;;25.80;58.30;;;;;;10511873;28;20107;-55
2022/08/15 18:44:28;;;;;;;5.10;4.63;;;25.80;58.30;;;;;;10521963;28;20047;-55
2022/08/15 18:49:31;;;;;;;5.20;4.70;;;25.70;58.30;;;;;;10535539;28;20549;-54
2022/08/15 18:54:43;;;;;;;5.10;4.60;;;25.80;58.30;;;;;;10534994;28;20062;-55
2022/08/15 19:00:00;;;;;;;5.63;4.93;;;25.80;58.30;;;;;;10517522;28;20028;-55
2022/08/15 19:05:22;;;;;;;4.85;4.00;;;25.80;58.30;;;;;;10534730;28;20031;-55
2022/08/15 19:10:30;;;;;;;4.45;4.05;;;25.70;58.20;;;;;;10518278;28;20053;-54
2022/08/15 19:16:17;;;;;;;4.88;4.35;;;25.80;58.20;;;;;;10534241;28;20127;-55
2022/08/15 19:21:18;;;;;;;5.20;4.72;;;25.80;58.20;;;;;;10534432;28;20024;-57
2022/08/15 19:26:53;;;;;;;7.10;5.38;;;25.80;58.30;;;;;;10533242;28;20043;-54
2022/08/15 19:32:28;;;;;;;4.80;4.38;;;25.80;58.20;;;;;;10477301;28;20059;-55
2022/08/15 19:37:58;;;;;;;4.72;4.32;;;25.70;58.20;;;;;;10533506;28;20115;-55
2022/08/15 19:43:24;;;;;;;4.53;4.07;;;25.80;58.30;;;;;;10531444;28;20040;-54
2022/08/15 19:48:57;;;;;;;5.68;4.38;;;25.70;58.30;;;;;;10513445;28;20024;-56
2022/08/15 19:53:58;;;;;;;5.05;4.55;;;25.70;58.30;;;;;;10529999;28;20028;-54
2022/08/15 19:59:23;;;;;;;5.22;4.72;;;25.70;58.30;;;;;;10531315;28;20046;-56
2022/08/15 20:04:41;;;;;;;5.38;4.88;;;25.80;58.30;;;;;;10512574;28;20064;-55
2022/08/15 20:10:16;;;;;;;5.10;4.63;;;25.70;58.30;;;;;;10531108;28;20032;-55
2022/08/15 20:15:47;;;;;;;6.00;5.25;;;25.70;58.30;;;;;;10530907;28;20097;-54
2022/08/15 20:21:29;;;;;;;4.88;4.47;;;25.70;58.30;;;;;;10515783;28;20400;-56
2022/08/15 20:26:53;;;;;;;4.90;4.40;;;25.70;58.30;;;;;;10503722;28;20059;-54
2022/08/15 20:32:24;;;;;;;6.97;4.53;;;25.70;58.30;;;;;;10473002;28;20033;-55
2022/08/15 20:37:31;;;;;;;5.20;4.70;;;25.70;58.30;;;;;;10496459;28;20032;-55
2022/08/15 20:42:53;;;;;;;5.35;4.85;;;25.80;58.40;;;;;;10529942;28;20503;-55
2022/08/15 20:48:09;;;;;;;5.38;4.88;;;25.70;58.40;;;;;;10512517;28;20506;-55
2022/08/15 20:53:13;;;;;;;4.50;4.10;;;25.70;58.30;;;;;;10529602;28;20077;-54
2022/08/15 20:58:20;;;;;;;5.45;4.95;;;25.70;58.30;;;;;;10511207;28;20506;-56
2022/08/15 21:03:21;;;;;;;5.75;4.95;;;25.70;58.30;;;;;;10529048;28;20024;-54
2022/08/15 21:08:40;;;;;;;4.90;4.50;;;25.70;58.30;;;;;;10528852;28;20063;-56
2022/08/15 21:13:57;;;;;;;5.68;5.18;;;25.70;58.30;;;;;;10513093;28;20028;-55
2022/08/15 21:19:26;;;;;;;5.00;4.57;;;25.70;58.30;;;;;;10537022;28;20055;-55
2022/08/15 21:24:30;;;;;;;5.20;4.70;;;25.70;58.30;;;;;;10519784;28;20515;-54
2022/08/15 21:29:31;;;;;;;5.80;5.25;;;25.70;58.20;;;;;;10508948;28;20032;-56
2022/08/15 21:34:38;;;;;;;5.20;4.70;;;25.70;58.20;;;;;;10518171;28;20352;-55
2022/08/15 21:39:58;;;;;;;5.07;4.63;;;25.70;58.30;;;;;;10518270;28;20040;-56
2022/08/15 21:45:12;;;;;;;6.15;5.53;;;25.70;58.20;;;;;;10519153;28;20395;-56
2022/08/15 21:50:37;;;;;;;5.63;5.13;;;25.70;58.20;;;;;;10518483;28;20032;-54
2022/08/15 21:55:43;;;;;;;6.78;6.18;;;25.70;58.30;;;;;;10536043;28;20126;-57
2022/08/15 22:00:45;;;;;;;4.88;4.38;;;25.70;58.20;;;;;;10535817;28;20129;-55
2022/08/15 22:06:00;;;;;;;5.22;4.72;;;25.70;58.20;;;;;;10517172;28;20509;-52
2022/08/15 22:11:26;;;;;;;5.53;4.90;;;25.70;58.20;;;;;;10518086;28;20043;-56
2022/08/15 22:16:30;;;;;;;5.68;5.18;;;25.70;58.20;;;;;;10519106;28;20376;-54
2022/08/15 22:21:32;;;;;;;6.45;4.72;;;25.70;58.20;;;;;;10517208;28;20059;-55
2022/08/15 22:26:33;;;;;;;5.60;5.10;;;25.60;58.40;;;;;;10531260;28;20387;-54
2022/08/15 22:31:34;;;;;;;6.18;5.57;;;25.60;58.20;;;;;;10474640;28;20488;-55
2022/08/15 22:36:35;;;;;;;5.60;5.10;;;25.60;58.10;;;;;;10515003;28;20032;-55
2022/08/15 22:41:36;;;;;;;5.68;5.05;;;25.70;58.20;;;;;;10533941;28;20518;-56
2022/08/15 22:46:44;;;;;;;5.95;5.40;;;25.60;58.20;;;;;;10533721;28;20316;-55
2022/08/15 22:51:53;;;;;;;5.85;5.25;;;25.60;58.20;;;;;;10533243;28;20046;-55
2022/08/15 22:57:01;;;;;;;5.22;4.72;;;25.60;58.20;;;;;;10533135;28;20032;-55
2022/08/15 23:02:12;;;;;;;5.97;5.40;;;25.60;58.20;;;;;;10515236;28;20027;-54
2022/08/15 23:07:17;;;;;;;5.35;4.90;;;25.60;58.20;;;;;;10516238;28;20036;-54
2022/08/15 23:12:22;;;;;;;5.40;4.90;;;25.60;58.30;;;;;;10533605;28;20027;-55
2022/08/15 23:17:57;;;;;;;5.20;4.70;;;25.60;58.30;;;;;;10532858;28;20020;-56
2022/08/15 23:23:02;;;;;;;5.03;4.53;;;25.60;58.30;;;;;;10517610;28;20067;-52
2022/08/15 23:28:03;;;;;;;5.88;5.30;;;25.60;58.30;;;;;;10498863;28;20087;-56
2022/08/15 23:33:06;;;;;;;5.45;4.45;;;25.60;58.30;;;;;;10501307;28;20116;-56
2022/08/15 23:38:12;;;;;;;5.18;4.70;;;25.60;58.30;;;;;;10512454;28;20389;-55
2022/08/15 23:43:13;;;;;;;7.65;5.35;;;25.60;58.30;;;;;;10513452;28;20031;-56
2022/08/15 23:48:14;;;;;;;5.13;4.55;;;25.60;58.30;;;;;;10532044;28;20066;-55
2022/08/15 23:53:15;;;;;;;5.47;4.88;;;25.60;58.30;;;;;;10531081;28;20023;-56
2022/08/15 23:58:18;;;;;;;5.68;5.18;;;25.60;58.30;;;;;;10512723;28;20020;-55
